Latest Weather Observations for Tamworth Airport

IDN60801

Issued at 8:35 pm EST Monday 21 April 2014 (issued every 30 minutes, with the page automatically refreshed every 10 minutes)

About weather observations | Map of weather stations | Latest weather observations for NSW | Other Formats
Station Details ID: 055325 Name: TAMWORTH AIRPORT AWS Lat: -31.07 Lon: 150.84 Height: 394.9 m
Data from the previous 72 hours. | See also: Recent months at Tamworth Airport
Date/Time
EST
Temp
°C
App
Temp
°C
Dew
Point
Rel
Hum
%
Delta-T
°C
Wind Press
QNH
hPa
Press
MSL
hPa
Rain
since 9 am
mm
Dir
 
Spd
km/h
Gust
km/h
Spd
kts
Gust
kts
21/08:30pm 13.2 9.9 2.7 49 4.7 SE 9 13 5 7 1020.7 - 0.0
21/08:00pm 14.2 11.4 1.8 43 5.5 E 6 7 3 4 1020.6 - 0.0
21/07:30pm 14.3 11.4 2.5 45 5.3 E 7 11 4 6 1020.5 - 0.0
21/07:00pm 14.0 10.4 0.3 39 5.9 S 9 11 5 6 1020.1 - 0.0
21/06:30pm 16.9 13.6 0.1 32 7.4 SSW 7 9 4 5 1019.7 - 0.0
21/06:00pm 19.5 16.3 1.0 29 8.5 SW 7 9 4 5 1019.5 1018.5 0.0
21/05:30pm 18.5 15.0 1.1 31 7.9 W 9 13 5 7 1019.2 - 0.0
21/05:00pm 21.6 18.2 1.8 27 9.4 W 9 11 5 6 1019.0 - 0.0
21/04:30pm 22.7 18.6 2.2 26 9.9 W 13 17 7 9 1018.9 - 0.0
21/04:00pm 23.6 18.4 2.4 25 10.3 W 19 24 10 13 1018.7 - 0.0
21/03:30pm 23.8 18.4 2.6 25 10.4 W 20 28 11 15 1018.7 - 0.0
21/03:00pm 24.3 19.1 2.5 24 10.6 WNW 19 30 10 16 1018.6 1017.6 0.0
21/02:30pm 24.2 19.5 2.9 25 10.5 W 17 28 9 15 1018.7 - 0.0
21/02:00pm 24.1 19.4 3.4 26 10.3 NW 17 26 9 14 1018.9 - 0.0
21/01:30pm 23.5 18.2 2.9 26 10.1 NW 20 35 11 19 1019.2 - 0.0
21/01:00pm 23.5 16.7 2.9 26 10.1 NW 28 37 15 20 1019.6 - 0.0
21/12:30pm 23.0 16.9 3.0 27 9.8 NW 24 35 13 19 1020.0 - 0.0
21/12:00pm 22.4 17.4 3.5 29 9.3 NNW 19 28 10 15 1020.6 1019.7 0.0
21/11:30am 21.7 17.4 3.4 30 8.9 NNW 15 20 8 11 1021.1 - 0.0
21/11:00am 20.2 16.9 4.3 35 7.8 N 11 17 6 9 1021.5 - 0.0
21/10:30am 19.2 16.8 4.2 37 7.3 NNW 6 11 3 6 1021.9 - 0.0
21/10:00am 17.6 15.1 3.9 40 6.6 ENE 6 11 3 6 1022.2 - 0.0
21/09:30am 16.4 13.8 4.4 45 5.8 E 7 9 4 5 1022.3 - 0.0
21/09:00am 15.1 12.6 4.5 49 5.0 E 7 11 4 6 1022.4 1021.4 0.0
21/08:30am 12.8 10.3 5.0 59 3.7 ESE 7 9 4 5 1022.3 - 0.0
21/08:00am 10.4 7.6 5.0 69 2.5 E 9 11 5 6 1022.2 - 0.0
21/07:30am 8.4 5.1 4.4 76 1.8 ESE 11 13 6 7 1021.9 - 0.0
21/07:00am 4.4 1.5 1.6 82 1.1 ESE 6 7 3 4 1021.6 - 0.0
21/06:30am 4.8 2.0 2.0 82 1.1 ESE 6 7 3 4 1021.1 - 0.0
21/06:00am 4.9 2.1 2.1 82 1.1 S 6 7 3 4 1020.7 1019.8 0.0
21/05:30am 5.0 3.4 2.5 84 1.0 CALM 0 0 0 0 1020.5 - 0.0
21/05:00am 4.4 2.0 2.3 86 0.9 WSW 4 6 2 3 1020.3 - 0.0
21/04:30am 5.0 3.1 3.0 87 0.8 SSW 2 6 1 3 1019.9 - 0.0
21/04:00am 4.2 2.6 2.2 87 0.8 CALM 0 0 0 0 1019.7 - 0.0
21/03:30am 4.1 1.5 1.0 80 1.2 SE 4 7 2 4 1019.6 - 0.0
21/03:00am 6.3 3.5 3.3 81 1.3 SE 7 9 4 5 1019.6 1018.6 0.0
21/02:30am 6.1 3.4 2.7 79 1.4 ESE 6 11 3 6 1019.6 - 0.0
21/02:00am 5.7 3.0 2.4 79 1.4 S 6 7 3 4 1019.7 - 0.0
21/01:30am 8.4 5.6 3.1 69 2.3 E 7 9 4 5 1019.6 - 0.0
21/01:00am 10.4 8.0 4.5 67 2.7 NE 6 7 3 4 1019.7 - 0.0
21/12:30am 10.4 8.5 4.8 68 2.6 NE 4 7 2 4 1019.9 - 0.0
21/12:00am 10.9 8.6 5.0 67 2.7 NE 6 7 3 4 1019.7 1018.7 0.0
 
Date/Time
EST
Temp
°C
App
Temp
°C
Dew
Point
Rel
Hum
%
Delta-T
°C
Wind Press
QNH
hPa
Press
MSL
hPa
Rain
since 9 am
mm
Dir
 
Spd
km/h
Gust
km/h
Spd
kts
Gust
kts
20/11:30pm 11.1 9.2 5.0 66 2.8 NE 4 6 2 3 1019.6 - 0.0
20/11:00pm 11.5 10.5 5.4 66 2.9 CALM 0 0 0 0 1019.5 - 0.0
20/10:30pm 11.8 10.8 5.7 66 2.9 CALM 0 4 0 2 1019.6 - 0.0
20/10:00pm 12.1 9.8 5.7 65 3.1 N 7 9 4 5 1019.6 - 0.0
20/09:30pm 11.8 8.5 4.5 61 3.4 N 11 11 6 6 1019.4 - 0.0
20/09:00pm 13.3 10.9 5.2 58 3.8 NE 7 9 4 5 1019.1 1018.1 0.0
20/08:30pm 13.9 11.4 4.8 54 4.3 NNE 7 9 4 5 1019.0 - 0.0
20/08:00pm 14.4 12.1 5.0 53 4.5 NNE 6 7 3 4 1018.6 - 0.0
20/07:30pm 14.0 11.6 5.1 55 4.3 W 7 7 4 4 1018.1 - 0.0
20/07:00pm 14.4 11.8 4.4 51 4.7 W 7 7 4 4 1017.9 - 0.0
20/06:30pm 15.7 13.2 4.7 48 5.3 WNW 7 11 4 6 1017.5 - 0.0
20/06:00pm 16.2 13.2 4.3 45 5.7 NW 9 15 5 8 1017.3 1016.3 0.0
20/05:30pm 19.0 15.3 4.7 39 7.0 NW 13 15 7 8 1017.0 - 0.0
20/05:00pm 21.7 17.0 5.2 34 8.3 WNW 19 24 10 13 1016.9 - 0.0
20/04:30pm 22.7 17.7 4.7 31 9.1 NW 20 26 11 14 1016.7 - 0.0
20/04:00pm 23.2 18.3 5.1 31 9.2 NW 20 26 11 14 1016.6 - 0.0
20/03:30pm 23.6 18.6 4.5 29 9.6 NW 20 33 11 18 1016.5 - 0.0
20/03:00pm 23.7 18.7 4.6 29 9.7 NNW 20 28 11 15 1016.6 1015.6 0.0
20/02:30pm 23.9 18.8 4.3 28 9.9 WNW 20 30 11 16 1016.7 - 0.0
20/02:00pm 24.1 19.3 5.5 30 9.6 NW 20 35 11 19 1016.8 - 0.0
20/01:30pm 23.1 17.0 4.6 30 9.3 WNW 26 48 14 26 1017.0 - 0.0
20/01:24pm 23.8 17.5 5.7 31 9.4 NNW 28 48 15 26 1016.8 - 0.0
20/01:00pm 23.2 16.6 4.2 29 9.5 NW 28 39 15 21 1017.2 - 0.0
20/12:30pm 24.2 20.0 5.5 30 9.7 NW 17 28 9 15 1017.5 - 0.0
20/12:00pm 23.2 17.7 6.0 33 8.9 NW 24 32 13 17 1018.1 1017.1 0.0
20/11:30am 22.6 17.8 5.5 33 8.7 WNW 20 30 11 16 1018.6 - 0.0
20/11:00am 21.9 17.9 4.9 33 8.6 WNW 15 24 8 13 1019.0 - 0.0
20/10:30am 21.6 16.7 4.2 32 8.6 WNW 19 22 10 12 1019.2 - 0.0
20/10:00am 19.7 17.9 7.8 46 6.2 N 7 13 4 7 1019.3 - 0.0
20/09:30am 17.9 16.0 7.6 51 5.3 NE 7 9 4 5 1019.4 - 0.0
20/09:00am 15.9 14.8 7.1 56 4.4 E 2 7 1 4 1019.4 1018.4 0.0
20/08:30am 13.4 12.7 7.0 65 3.2 CALM 0 6 0 3 1019.4 - 0.0
20/08:00am 12.1 10.1 7.2 72 2.4 ESE 7 9 4 5 1019.1 - 0.0
20/07:30am 9.2 8.6 7.5 89 0.8 CALM 0 0 0 0 1018.9 - 0.0
20/07:00am 6.0 4.7 4.3 89 0.7 CALM 0 0 0 0 1018.5 - 0.0
20/06:54am 5.3 3.9 3.5 88 0.8 CALM 0 0 0 0 1018.5 - 0.0
20/06:31am 5.2 3.7 3.2 87 0.8 CALM 0 0 0 0 1018.1 - 0.0
20/06:30am 5.2 3.7 3.1 86 0.9 CALM 0 0 0 0 1018.1 - 0.0
20/06:00am 6.4 4.1 4.6 88 0.8 SE 6 7 3 4 1017.8 1016.8 0.0
20/05:30am 7.4 5.2 5.2 86 1.0 SSE 6 7 3 4 1017.6 - 0.0
20/05:00am 7.5 5.4 5.6 88 0.9 SE 6 9 3 5 1017.4 - 0.0
20/04:30am 7.1 4.7 5.4 89 0.8 SSW 7 9 4 5 1017.2 - 0.0
20/04:00am 7.0 4.5 5.0 87 0.9 SE 7 9 4 5 1017.0 - 0.0
20/03:30am 6.6 4.1 3.8 82 1.2 SE 6 7 3 4 1017.1 - 0.0
20/03:00am 7.7 5.5 5.2 84 1.1 ESE 6 11 3 6 1017.1 1016.1 0.0
20/02:30am 8.9 7.0 6.9 87 1.0 S 6 7 3 4 1017.1 - 0.0
20/02:00am 7.7 5.2 4.8 82 1.3 W 7 7 4 4 1017.3 - 0.0
20/01:30am 9.2 6.8 5.4 77 1.8 SE 7 11 4 6 1017.3 - 0.0
20/01:00am 9.9 7.6 5.9 76 1.9 ENE 7 9 4 5 1017.4 - 0.0
20/12:30am 10.7 9.9 6.6 76 2.0 CALM 0 0 0 0 1017.6 - 0.0
20/12:00am 10.8 8.8 6.2 73 2.2 N 6 7 3 4 1017.7 1016.7 0.0
 
Date/Time
EST
Temp
°C
App
Temp
°C
Dew
Point
Rel
Hum
%
Delta-T
°C
Wind Press
QNH
hPa
Press
MSL
hPa
Rain
since 9 am
mm
Dir
 
Spd
km/h
Gust
km/h
Spd
kts
Gust
kts
19/11:30pm 11.7 9.7 7.2 74 2.2 NNE 7 9 4 5 1017.8 - 0.0
19/11:00pm 11.1 10.5 7.2 77 1.9 CALM 0 0 0 0 1017.7 - 0.0
19/10:30pm 11.6 9.0 6.1 69 2.6 NW 9 9 5 5 1017.7 - 0.0
19/10:00pm 13.0 11.7 7.5 69 2.7 N 4 9 2 5 1017.8 - 0.0
19/09:30pm 12.9 11.1 7.1 68 2.9 ESE 6 9 3 5 1017.5 - 0.0
19/09:00pm 13.9 11.4 6.5 61 3.6 SW 9 11 5 6 1017.3 1016.3 0.0
19/08:30pm 15.0 12.3 7.3 60 3.9 SSW 11 13 6 7 1017.1 - 0.0
19/08:00pm 15.5 13.1 6.8 56 4.4 SW 9 13 5 7 1016.9 - 0.0
19/07:30pm 17.2 14.4 7.0 51 5.2 SW 11 15 6 8 1016.5 - 0.0
19/07:00pm 15.4 13.2 6.1 54 4.6 SSW 7 17 4 9 1016.1 - 0.0
19/06:30pm 18.0 16.2 7.1 49 5.6 E 6 7 3 4 1015.6 - 0.0
19/06:00pm 20.0 18.2 7.1 43 6.7 SSW 6 9 3 5 1015.2 1014.2 0.0
19/05:30pm 20.0 17.8 6.4 41 7.0 NNW 7 9 4 5 1014.9 - 0.0
19/05:00pm 22.6 20.2 6.8 36 8.3 WNW 9 13 5 7 1014.9 - 0.0
19/04:30pm 23.2 19.8 6.0 33 8.9 W 13 17 7 9 1014.8 - 0.0
19/04:00pm 23.1 20.5 6.0 33 8.9 NW 9 17 5 9 1014.7 - 0.0
19/03:30pm 23.4 19.6 5.8 32 9.1 NW 15 22 8 12 1014.8 - 0.0
19/03:00pm 23.7 19.9 6.0 32 9.2 WNW 15 24 8 13 1014.9 1013.9 0.0
19/02:30pm 23.1 20.0 5.5 32 9.0 WNW 11 20 6 11 1015.1 - 0.0
19/02:00pm 23.0 18.3 5.0 31 9.1 W 19 28 10 15 1015.3 - 0.0
19/01:30pm 23.6 18.9 5.0 30 9.5 W 19 30 10 16 1015.8 - 0.0
19/01:00pm 23.5 18.6 4.9 30 9.5 W 20 28 11 15 1016.1 - 0.0
19/12:30pm 22.3 18.6 6.1 35 8.4 W 15 33 8 18 1016.7 - 0.0
19/12:00pm 22.3 19.4 6.5 36 8.2 NNW 11 17 6 9 1017.1 1016.1 0.0
19/11:30am 21.6 19.3 7.4 40 7.5 N 9 17 5 9 1017.6 - 0.0
19/11:00am 20.2 17.8 7.2 43 6.8 N 9 15 5 8 1018.3 - 0.0
19/10:30am 18.9 16.7 8.0 49 5.7 N 9 15 5 8 1018.6 - 0.0
19/10:00am 17.5 15.7 8.1 54 4.9 N 7 11 4 6 1018.7 - 0.0
19/09:30am 15.7 13.8 7.5 58 4.2 N 7 9 4 5 1018.9 - 0.0
19/09:00am 15.1 14.3 8.1 63 3.6 SE 2 7 1 4 1019.0 1018.0 0.0
19/08:30am 14.0 12.7 7.8 66 3.1 E 4 9 2 5 1019.0 - 0.0
19/08:00am 12.9 11.6 7.6 70 2.6 SE 4 9 2 5 1018.7 - 0.0
19/07:30am 11.8 10.3 8.5 80 1.7 S 6 11 3 6 1018.4 - 0.0
19/07:00am 7.7 6.7 5.8 88 0.9 CALM 0 6 0 3 1018.1 - 0.0
19/06:30am 6.2 4.1 3.7 84 1.1 SE 4 9 2 5 1018.0 - 0.0
19/06:00am 6.7 4.7 4.4 85 1.0 ESE 4 7 2 4 1017.7 1016.7 0.0
19/05:30am 6.8 4.5 4.6 86 1.0 SE 6 9 3 5 1017.5 - 0.0
19/05:00am 6.3 4.2 4.1 86 1.0 S 4 7 2 4 1017.3 - 0.0
19/04:30am 6.4 4.0 4.1 85 1.0 S 6 13 3 7 1017.0 - 0.0
19/04:00am 7.5 5.0 5.0 84 1.1 S 7 13 4 7 1016.8 - 0.0
19/03:30am 7.8 5.0 5.1 83 1.2 SE 9 11 5 6 1016.8 - 0.0
19/03:00am 8.1 5.6 4.5 78 1.6 ESE 7 13 4 7 1016.8 1015.8 0.0
19/02:30am 8.9 6.5 5.3 78 1.7 ESE 7 11 4 6 1017.0 - 0.0
19/02:00am 9.1 7.6 4.9 75 1.9 SSW 2 9 1 5 1017.2 - 0.0
19/01:30am 9.9 7.8 5.9 76 1.9 W 6 7 3 4 1017.4 - 0.0
19/01:00am 10.4 8.3 5.8 73 2.2 N 6 7 3 4 1017.5 - 0.0
19/12:30am 10.5 8.7 5.3 70 2.4 N 4 7 2 4 1017.6 - 0.0
19/12:00am 11.2 9.0 5.5 68 2.7 N 6 7 3 4 1017.7 1016.7 0.0
 
Date/Time
EST
Temp
°C
App
Temp
°C
Dew
Point
Rel
Hum
%
Delta-T
°C
Wind Press
QNH
hPa
Press
MSL
hPa
Rain
since 9 am
mm
Dir
 
Spd
km/h
Gust
km/h
Spd
kts
Gust
kts
18/11:30pm 11.8 9.2 6.1 68 2.7 NNE 9 9 5 5 1017.8 - 0.0
18/11:00pm 12.1 10.3 5.5 64 3.1 N 4 11 2 6 1017.9 - 0.0
18/10:30pm 13.3 11.8 6.6 64 3.3 N 4 9 2 5 1017.9 - 0.0
18/10:00pm 12.4 9.8 6.0 65 3.1 N 9 13 5 7 1017.9 - 0.0
18/09:30pm 12.3 10.5 5.5 63 3.2 NW 4 7 2 4 1017.7 - 0.0
18/09:00pm 13.0 9.6 5.9 62 3.4 SW 13 15 7 8 1017.5 1016.5 0.0

Other Formats:

Comma delimited format used in spreadsheet applications
http://www.bom.gov.au/fwo/IDN60801/IDN60801.95762.axf

JavaScript Object Notation format (JSON) in row-major order
http://www.bom.gov.au/fwo/IDN60801/IDN60801.95762.json